createdAt,value
2018-09-05T00:02:43.269Z,99147.69
2018-09-05T00:05:45.487Z,99139.77
2018-09-05T00:08:47.656Z,99141.30
2018-09-05T00:11:49.853Z,99138.82
2018-09-05T00:14:52.298Z,99134.34
2018-09-05T00:17:54.462Z,99129.88
2018-09-05T00:20:56.680Z,99133.11
2018-09-05T00:23:58.917Z,99131.16
2018-09-05T00:27:01.110Z,99131.33
2018-09-05T00:30:03.391Z,99134.86
2018-09-05T00:33:05.409Z,99136.23
2018-09-05T00:36:07.963Z,99135.60
2018-09-05T00:39:10.302Z,99140.31
2018-09-05T00:42:12.560Z,99138.91
2018-09-05T00:45:14.801Z,99137.99
2018-09-05T00:48:16.968Z,99136.29
2018-09-05T00:51:19.262Z,99139.97
2018-09-05T00:54:21.441Z,99133.27
2018-09-05T00:57:23.889Z,99134.66
2018-09-05T01:00:26.063Z,99135.00
2018-09-05T01:03:28.431Z,99136.95
2018-09-05T01:06:30.673Z,99136.23
2018-09-05T01:09:32.852Z,99137.81
2018-09-05T01:12:35.059Z,99138.19
2018-09-05T01:15:37.365Z,99142.77
2018-09-05T01:18:39.643Z,99139.75
2018-09-05T01:21:41.981Z,99148.72
2018-09-05T01:24:44.342Z,99145.90
2018-09-05T01:27:46.956Z,99145.36
2018-09-05T01:30:49.238Z,99139.75
2018-09-05T01:33:51.567Z,99140.41
2018-09-05T01:36:53.795Z,99140.36
2018-09-05T01:39:56.196Z,99139.77
2018-09-05T01:42:58.447Z,99140.56
2018-09-05T01:46:00.706Z,99141.52
2018-09-05T01:49:02.989Z,99139.51
2018-09-05T01:52:05.323Z,99140.77
2018-09-05T01:55:07.592Z,99140.23
2018-09-05T01:58:09.780Z,99140.95
2018-09-05T02:01:12.013Z,99139.69
2018-09-05T02:04:14.160Z,99142.56
2018-09-05T02:07:16.376Z,99142.80
2018-09-05T02:10:18.576Z,99146.80
2018-09-05T02:13:20.837Z,99149.43
2018-09-05T02:16:22.986Z,99149.43
2018-09-05T02:19:25.258Z,99148.17
2018-09-05T02:22:27.436Z,99151.86
2018-09-05T02:25:29.706Z,99149.23
2018-09-05T02:28:31.861Z,99153.17
2018-09-05T02:31:34.064Z,99149.73
2018-09-05T02:34:36.349Z,99147.84
2018-09-05T02:37:38.629Z,99146.58
2018-09-05T02:40:40.914Z,99138.56
2018-09-05T02:43:48.857Z,99140.19
2018-09-05T02:46:51.676Z,99144.87
2018-09-05T02:49:53.954Z,99141.76
2018-09-05T02:52:56.229Z,99142.85
2018-09-05T02:56:01.784Z,99152.55
2018-09-05T02:59:04.080Z,99154.04
2018-09-05T03:02:06.286Z,99155.67
2018-09-05T03:05:08.502Z,99152.63
2018-09-05T03:08:10.706Z,99156.84
2018-09-05T03:11:12.883Z,99158.97
2018-09-05T03:14:15.073Z,99159.20
2018-09-05T03:17:17.501Z,99160.97
2018-09-05T03:20:19.686Z,99171.24
2018-09-05T03:23:27.600Z,99167.70
2018-09-05T03:26:29.816Z,99169.28
2018-09-05T03:29:33.081Z,99164.03
2018-09-05T03:32:35.574Z,99167.61
2018-09-05T03:35:37.593Z,99161.69
2018-09-05T03:38:39.730Z,99164.77
2018-09-05T03:41:42.053Z,99159.83
2018-09-05T03:44:44.322Z,99169.84
2018-09-05T03:47:46.499Z,99167.39
2018-09-05T03:50:53.222Z,99168.20
2018-09-05T03:53:55.631Z,99171.14
2018-09-05T03:56:58.156Z,99169.52
2018-09-05T04:00:00.297Z,99166.25
2018-09-05T04:03:03.522Z,99166.08
2018-09-05T04:06:05.654Z,99169.02
2018-09-05T04:09:07.844Z,99160.97
2018-09-05T04:12:10.330Z,99159.83
2018-09-05T04:15:12.677Z,99161.50
2018-09-05T04:18:14.963Z,99163.00
2018-09-05T04:21:17.109Z,99163.22
2018-09-05T04:24:19.308Z,99157.06
2018-09-05T04:27:21.569Z,99162.71
2018-09-05T04:30:23.880Z,99159.45
2018-09-05T04:33:26.049Z,99162.11
2018-09-05T04:36:28.289Z,99167.69
2018-09-05T04:39:30.560Z,99160.63
2018-09-05T04:42:33.049Z,99161.61
2018-09-05T04:45:35.271Z,99163.38
2018-09-05T04:48:37.609Z,99165.33
2018-09-05T04:51:39.838Z,99174.55
2018-09-05T04:54:42.025Z,99173.25
2018-09-05T04:57:44.306Z,99177.82
2018-09-05T05:00:46.546Z,99174.38
2018-09-05T05:03:48.742Z,99177.36
2018-09-05T05:06:51.010Z,99183.20
2018-09-05T05:09:53.185Z,99183.80
2018-09-05T05:12:55.448Z,99185.95
2018-09-05T05:15:57.661Z,99187.23
2018-09-05T05:18:59.936Z,99186.73
2018-09-05T05:22:02.121Z,99185.59
2018-09-05T05:25:04.362Z,99189.46
2018-09-05T05:28:06.779Z,99190.35
2018-09-05T05:31:09.240Z,99179.09
2018-09-05T05:34:11.405Z,99183.47
2018-09-05T05:37:13.648Z,99183.36
2018-09-05T05:40:15.860Z,99189.67
2018-09-05T05:43:18.088Z,99188.28
2018-09-05T05:46:20.417Z,99188.75
2018-09-05T05:49:22.642Z,99188.03
2018-09-05T05:52:24.744Z,99186.67
2018-09-05T05:55:26.959Z,99193.54
2018-09-05T05:58:29.299Z,99198.84
2018-09-05T06:01:31.489Z,99201.08
2018-09-05T06:04:33.649Z,99199.91
2018-09-05T06:07:35.788Z,99205.77
2018-09-05T06:10:38.141Z,99203.13
2018-09-05T06:13:40.448Z,99206.08
2018-09-05T06:16:42.868Z,99214.44
2018-09-05T06:19:45.204Z,99213.77
2018-09-05T06:22:48.792Z,99212.84
2018-09-05T06:25:50.977Z,99210.49
2018-09-05T06:28:53.101Z,99210.55
2018-09-05T06:31:55.267Z,99210.09
2018-09-05T06:34:57.413Z,99209.68
2018-09-05T06:37:59.635Z,99211.16
2018-09-05T06:41:01.873Z,99211.41
2018-09-05T06:44:04.095Z,99208.20
2018-09-05T06:47:06.375Z,99208.47
2018-09-05T06:50:08.563Z,99216.59
2018-09-05T06:53:10.821Z,99218.08
2018-09-05T06:56:13.000Z,99215.95
2018-09-05T06:59:15.386Z,99222.02
2018-09-05T07:02:17.642Z,99217.48
2018-09-05T07:05:19.935Z,99213.44
2018-09-05T07:08:22.168Z,99213.00
2018-09-05T07:11:24.301Z,99218.25
2018-09-05T07:14:26.548Z,99219.84
2018-09-05T07:17:28.714Z,99210.41
2018-09-05T07:20:30.893Z,99217.14
2018-09-05T07:23:33.213Z,99208.78
2018-09-05T07:26:35.906Z,99211.56
2018-09-05T07:29:38.077Z,99212.56
2018-09-05T07:32:40.315Z,99211.30
2018-09-05T07:35:42.593Z,99211.20
2018-09-05T07:38:44.673Z,99215.50
2018-09-05T07:41:46.858Z,99210.42
2018-09-05T07:44:50.067Z,99213.83
2018-09-05T07:47:52.470Z,99213.72
2018-09-05T07:50:54.794Z,99218.94
2018-09-05T07:53:56.940Z,99217.02
2018-09-05T07:56:59.124Z,99223.42
2018-09-05T08:00:01.340Z,99226.08
2018-09-05T08:03:03.647Z,99222.19
2018-09-05T08:06:05.793Z,99214.20
2018-09-05T08:09:09.812Z,99220.05
2018-09-05T08:12:12.018Z,99217.69
2018-09-05T08:15:14.210Z,99222.06
2018-09-05T08:18:16.366Z,99222.19
2018-09-05T08:21:18.661Z,99215.47
2018-09-05T08:24:20.942Z,99214.25
2018-09-05T08:27:23.531Z,99216.64
2018-09-05T08:30:25.661Z,99206.95
2018-09-05T08:33:27.888Z,99213.37
2018-09-05T08:36:30.333Z,99206.13
2018-09-05T08:39:32.295Z,99199.81
2018-09-05T08:42:35.453Z,99201.41
2018-09-05T08:45:37.804Z,99208.67
2018-09-05T08:48:39.903Z,99203.17
2018-09-05T08:51:41.985Z,99202.63
2018-09-05T08:54:44.245Z,99202.65
2018-09-05T08:57:46.432Z,99196.84
2018-09-05T09:00:48.606Z,99203.45
2018-09-05T09:03:50.768Z,99200.42
2018-09-05T09:06:52.908Z,99196.06
2018-09-05T09:09:55.422Z,99198.00
2018-09-05T09:12:57.758Z,99200.48
2018-09-05T09:15:59.998Z,99198.83
2018-09-05T09:19:02.188Z,99192.84
2018-09-05T09:22:04.526Z,99192.42
2018-09-05T09:25:06.841Z,99185.02
2018-09-05T09:28:09.077Z,99185.27
2018-09-05T09:31:11.264Z,99178.70
2018-09-05T09:34:13.494Z,99178.10
2018-09-05T09:37:15.736Z,99180.11
2018-09-05T09:40:17.928Z,99177.06
2018-09-05T09:43:20.217Z,99165.53
2018-09-05T09:46:22.391Z,99171.48
2018-09-05T09:49:24.734Z,99158.69
2018-09-05T09:52:26.888Z,99163.23
2018-09-05T09:55:29.104Z,99155.99
2018-09-05T09:58:31.349Z,99158.41
2018-09-05T10:01:39.249Z,99150.36
2018-09-05T10:04:47.225Z,99142.86
2018-09-05T10:07:55.103Z,99139.11
2018-09-05T10:11:06.653Z,99132.22
2018-09-05T10:14:11.129Z,99130.42
2018-09-05T10:17:18.938Z,99124.40
2018-09-05T10:20:21.225Z,99121.41
2018-09-05T10:23:23.501Z,99123.05
2018-09-05T10:26:25.636Z,99120.70
2018-09-05T10:29:27.892Z,99113.56
2018-09-05T10:32:30.512Z,99110.97
2018-09-05T10:35:33.078Z,99110.91
2018-09-05T10:38:35.443Z,99102.34
2018-09-05T10:41:37.690Z,99105.79
2018-09-05T10:44:40.026Z,99108.22
2018-09-05T10:47:42.259Z,99099.52
2018-09-05T10:50:44.479Z,99085.05
2018-09-05T10:53:46.711Z,99087.30
2018-09-05T10:56:48.927Z,99087.77
2018-09-05T10:59:51.116Z,99082.38
2018-09-05T11:02:53.686Z,99088.39
2018-09-05T11:05:56.889Z,99081.79
2018-09-05T11:08:59.202Z,99081.98
2018-09-05T11:12:01.435Z,99077.29
2018-09-05T11:15:03.819Z,99069.34
2018-09-05T11:18:06.084Z,99067.02
2018-09-05T11:21:08.335Z,99061.66
2018-09-05T11:24:10.683Z,99054.55
2018-09-05T11:27:12.930Z,99059.33
2018-09-05T11:30:15.156Z,99050.45
2018-09-05T11:33:17.525Z,99046.16
2018-09-05T11:36:19.773Z,99046.47
2018-09-05T11:39:22.001Z,99040.81
2018-09-05T11:42:24.233Z,99029.06
2018-09-05T11:45:26.533Z,99033.11
2018-09-05T11:48:28.785Z,99032.05
2018-09-05T11:51:31.196Z,99027.05
2018-09-05T11:54:33.438Z,99031.45
2018-09-05T11:57:35.713Z,99029.05
2018-09-05T12:00:37.971Z,99035.31
2018-09-05T12:03:40.228Z,99029.22
2018-09-05T12:06:42.489Z,99025.15
2018-09-05T12:09:44.648Z,99016.94
2018-09-05T12:12:46.882Z,99028.09
2018-09-05T12:15:49.388Z,99023.48
2018-09-05T12:18:51.616Z,99015.94
2018-09-05T12:21:53.965Z,99026.61
2018-09-05T12:24:56.257Z,99028.62
2018-09-05T12:27:59.453Z,99020.21
2018-09-05T12:31:01.727Z,99024.34
2018-09-05T12:34:04.070Z,99017.81
2018-09-05T12:37:06.337Z,99021.62
2018-09-05T12:40:08.949Z,99018.77
2018-09-05T12:43:11.225Z,99015.77
2018-09-05T12:46:13.439Z,99013.34
2018-09-05T12:49:15.697Z,99010.88
2018-09-05T12:52:18.032Z,99010.83
2018-09-05T12:55:20.562Z,99009.75
2018-09-05T12:58:22.828Z,99009.12
2018-09-05T13:01:25.072Z,99011.27
2018-09-05T13:04:27.405Z,99001.38
2018-09-05T13:07:29.605Z,98999.27
2018-09-05T13:10:32.089Z,98999.64
2018-09-05T13:13:34.452Z,99000.53
2018-09-05T13:16:36.828Z,98996.55
2018-09-05T13:19:39.080Z,98993.72
2018-09-05T13:22:41.256Z,98988.55
2018-09-05T13:25:43.570Z,98987.06
2018-09-05T13:28:45.921Z,98982.36
2018-09-05T13:31:48.141Z,98974.13
2018-09-05T13:34:50.360Z,98980.14
2018-09-05T13:37:52.650Z,98965.03
2018-09-05T13:40:54.984Z,98958.17
2018-09-05T13:43:57.218Z,98940.08
2018-09-05T13:46:59.465Z,98933.13
2018-09-05T13:50:02.119Z,98915.12
2018-09-05T13:53:04.591Z,98915.09
2018-09-05T13:56:06.932Z,98911.67
2018-09-05T13:59:09.128Z,98926.70
2018-09-05T14:02:11.282Z,98908.97
2018-09-05T14:05:14.049Z,98926.39
2018-09-05T14:08:16.216Z,98899.64
2018-09-05T14:11:18.400Z,98910.45
2018-09-05T14:14:20.598Z,98942.93
2018-09-05T14:17:22.896Z,98928.16
2018-09-05T14:20:25.255Z,98896.52
2018-09-05T14:23:27.534Z,98903.84
2018-09-05T14:26:29.881Z,98893.88
2018-09-05T14:29:32.064Z,98886.25
2018-09-05T14:32:34.228Z,98905.22
2018-09-05T14:35:36.428Z,98906.68
2018-09-05T14:38:38.842Z,98895.20
2018-09-05T14:41:41.294Z,98908.55
2018-09-05T14:44:43.637Z,98924.13
2018-09-05T14:47:45.922Z,98920.36
2018-09-05T14:50:48.216Z,98908.33
2018-09-05T14:53:50.496Z,98891.00
2018-09-05T14:56:52.689Z,98872.00
2018-09-05T14:59:54.946Z,98859.12
2018-09-05T15:02:57.209Z,98867.53
2018-09-05T15:05:59.477Z,98857.95
2018-09-05T15:09:01.801Z,98869.86
2018-09-05T15:12:04.093Z,98860.33
2018-09-05T15:15:06.500Z,98891.25
2018-09-05T15:18:08.649Z,98878.69
2018-09-05T15:21:10.927Z,98859.48
2018-09-05T15:24:13.262Z,98884.86
2018-09-05T15:27:15.761Z,98841.41
2018-09-05T15:30:18.093Z,98857.62
2018-09-05T15:33:20.312Z,98866.01
2018-09-05T15:36:22.618Z,98859.41
2018-09-05T15:39:24.996Z,98865.64
2018-09-05T15:42:27.452Z,98882.98
2018-09-05T15:45:29.784Z,98874.59
2018-09-05T15:48:31.984Z,98862.25
2018-09-05T15:51:35.146Z,98854.88
2018-09-05T15:54:37.402Z,98846.10
2018-09-05T15:57:39.645Z,98853.14
2018-09-05T16:00:42.924Z,98856.84
2018-09-05T16:03:45.254Z,98853.88
2018-09-05T16:06:47.479Z,98846.51
2018-09-05T16:09:49.750Z,98866.68
2018-09-05T16:12:52.067Z,98872.34
2018-09-05T16:15:54.290Z,98856.89
2018-09-05T16:18:56.629Z,98880.63
2018-09-05T16:21:58.971Z,98873.53
2018-09-05T16:25:02.212Z,98874.78
2018-09-05T16:28:04.669Z,98874.34
2018-09-05T16:31:06.980Z,98870.12
2018-09-05T16:34:09.548Z,98867.25
2018-09-05T16:37:11.808Z,98853.36
2018-09-05T16:40:14.088Z,98858.84
2018-09-05T16:43:16.369Z,98854.62
2018-09-05T16:46:18.762Z,98843.13
2018-09-05T16:49:21.017Z,98835.80
2018-09-05T16:52:28.757Z,98832.37
2018-09-05T16:55:31.127Z,98850.28
2018-09-05T16:58:33.409Z,98847.63
2018-09-05T17:01:35.585Z,98848.83
2018-09-05T17:04:37.880Z,98836.80
2018-09-05T17:07:40.277Z,98860.89
2018-09-05T17:10:42.496Z,98852.30
2018-09-05T17:13:44.656Z,98856.84
2018-09-05T17:16:46.874Z,98855.66
2018-09-05T17:19:49.167Z,98855.68
2018-09-05T17:22:51.417Z,98871.05
2018-09-05T17:25:53.751Z,98857.77
2018-09-05T17:34:23.429Z,98863.06
2018-09-05T17:37:25.898Z,98867.05
2018-09-05T17:40:28.208Z,98879.13
2018-09-05T17:43:30.495Z,98876.90
2018-09-05T17:46:32.660Z,98876.12
2018-09-05T17:49:35.039Z,98883.92
2018-09-05T17:52:37.279Z,98878.89
2018-09-05T17:55:39.593Z,98887.15
2018-09-05T17:58:41.914Z,98882.86
2018-09-05T18:01:44.265Z,98879.06
2018-09-05T18:04:46.433Z,98879.48
2018-09-05T18:07:48.725Z,98888.86
2018-09-05T18:10:51.016Z,98886.17
2018-09-05T18:13:53.254Z,98879.68
2018-09-05T18:16:55.546Z,98891.31
2018-09-05T18:19:57.820Z,98890.74
2018-09-05T18:23:00.104Z,98891.33
2018-09-05T18:26:03.468Z,98895.43
2018-09-05T18:29:05.684Z,98893.45
2018-09-05T18:33:32.565Z,98897.20
2018-09-05T18:36:34.877Z,98893.18
2018-09-05T18:39:37.293Z,98901.42
2018-09-05T18:42:39.583Z,98902.75
2018-09-05T18:45:41.732Z,98896.88
2018-09-05T18:48:45.195Z,98904.11
2018-09-05T18:51:47.760Z,98899.25
2018-09-05T18:54:49.972Z,98903.58
2018-09-05T18:57:52.171Z,98906.06
2018-09-05T19:00:54.368Z,98899.19
2018-09-05T19:03:56.551Z,98896.70
2018-09-05T19:06:58.885Z,98895.55
2018-09-05T19:10:01.090Z,98897.09
2018-09-05T19:13:03.312Z,98889.27
2018-09-05T19:16:05.568Z,98892.02
2018-09-05T19:19:07.929Z,98893.63
2018-09-05T19:22:10.289Z,98891.82
2018-09-05T19:25:12.685Z,98885.27
2018-09-05T19:28:14.962Z,98886.48
2018-09-05T19:31:17.309Z,98884.37
2018-09-05T19:34:19.685Z,98884.75
2018-09-05T19:37:22.886Z,98880.19
2018-09-05T19:40:25.121Z,98874.02
2018-09-05T19:43:27.380Z,98875.34
2018-09-05T19:46:29.676Z,98875.29
2018-09-05T19:49:31.894Z,98874.78
2018-09-05T19:52:34.449Z,98876.59
2018-09-05T19:55:36.713Z,98881.37
2018-09-05T19:58:39.152Z,98881.51
2018-09-05T20:01:41.551Z,98883.78
2018-09-05T20:04:43.766Z,98890.08
2018-09-05T20:07:46.025Z,98885.66
2018-09-05T20:10:48.218Z,98884.63
2018-09-05T20:13:50.404Z,98883.33
2018-09-05T20:16:52.608Z,98877.09
2018-09-05T20:19:54.968Z,98879.01
2018-09-05T20:22:57.229Z,98879.40
2018-09-05T20:25:59.458Z,98879.52
2018-09-05T20:29:01.754Z,98886.87
2018-09-05T20:32:04.050Z,98891.25
2018-09-05T20:35:06.272Z,98896.41
2018-09-05T20:38:08.558Z,98899.05
2018-09-05T20:41:10.782Z,98896.07
2018-09-05T20:44:12.973Z,98892.95
2018-09-05T20:47:15.273Z,98891.34
2018-09-05T20:50:17.503Z,98888.36
2018-09-05T20:53:19.782Z,98890.61
2018-09-05T20:56:22.074Z,98881.49
2018-09-05T20:59:24.380Z,98888.83
2018-09-05T21:02:26.617Z,98888.70
2018-09-05T21:05:28.877Z,98887.16
2018-09-05T21:08:31.136Z,98878.55
2018-09-05T21:11:33.323Z,98882.77
2018-09-05T21:14:35.584Z,98885.24
2018-09-05T21:17:37.899Z,98884.56
2018-09-05T21:20:40.152Z,98885.53
2018-09-05T21:23:42.429Z,98888.12
2018-09-05T21:26:44.729Z,98890.91
2018-09-05T21:29:46.928Z,98887.99
2018-09-05T21:36:27.940Z,98876.56
2018-09-05T21:39:30.304Z,98882.86
2018-09-05T21:42:32.629Z,98881.32
2018-09-05T21:45:35.114Z,98874.42
2018-09-05T21:48:37.460Z,98868.87
2018-09-05T21:51:39.785Z,98874.97
2018-09-05T21:54:42.072Z,98882.20
2018-09-05T21:57:44.419Z,98884.77
2018-09-05T22:00:47.385Z,98877.48
2018-09-05T22:03:51.116Z,98879.73
2018-09-05T22:06:53.443Z,98874.16
2018-09-05T22:09:55.733Z,98873.14
2018-09-05T22:12:58.135Z,98877.60
2018-09-05T22:16:00.456Z,98875.48
2018-09-05T22:19:02.844Z,98880.86
2018-09-05T22:22:05.168Z,98880.25
2018-09-05T22:25:07.661Z,98881.46
2018-09-05T22:28:09.907Z,98881.59
2018-09-05T22:31:12.186Z,98883.21
2018-09-05T22:34:14.437Z,98880.27
2018-09-05T22:37:16.756Z,98881.83
2018-09-05T22:40:19.088Z,98875.08
2018-09-05T22:43:34.300Z,98882.84
2018-09-05T22:46:48.067Z,98887.45
2018-09-05T22:50:12.391Z,98882.27
2018-09-05T22:53:38.364Z,98884.69
2018-09-05T22:56:59.246Z,98885.00
2018-09-05T23:00:13.499Z,98882.58
2018-09-05T23:03:32.779Z,98875.59
2018-09-05T23:07:46.022Z,98876.70
2018-09-05T23:10:59.829Z,98882.48
2018-09-05T23:14:13.558Z,98879.95
2018-09-05T23:17:27.332Z,98872.03
2018-09-05T23:20:42.005Z,98881.33
2018-09-05T23:23:51.337Z,98874.71
2018-09-05T23:26:53.643Z,98868.42
2018-09-05T23:29:55.938Z,98866.47
2018-09-05T23:32:58.199Z,98862.19
2018-09-05T23:36:01.219Z,98866.62
2018-09-05T23:39:04.604Z,98863.93
2018-09-05T23:42:07.066Z,98871.31
2018-09-05T23:45:09.418Z,98872.90
2018-09-05T23:48:11.683Z,98864.75
2018-09-05T23:51:13.910Z,98864.98
2018-09-05T23:54:16.235Z,98861.03
2018-09-05T23:57:18.554Z,98861.66
